sensor_id;sensor_type;location;lat;lon;timestamp;temperature;humidity
3690;DHT22;1861;50.240;8.596;2023-07-09T00:01:53;22.50;91.50
3690;DHT22;1861;50.240;8.596;2023-07-09T00:04:21;22.50;91.50
3690;DHT22;1861;50.240;8.596;2023-07-09T00:06:49;22.50;91.50
3690;DHT22;1861;50.240;8.596;2023-07-09T00:09:20;22.50;91.60
3690;DHT22;1861;50.240;8.596;2023-07-09T00:11:49;22.40;91.70
3690;DHT22;1861;50.240;8.596;2023-07-09T00:14:18;22.40;91.80
3690;DHT22;1861;50.240;8.596;2023-07-09T00:16:47;22.40;91.80
3690;DHT22;1861;50.240;8.596;2023-07-09T00:19:19;22.40;91.80
3690;DHT22;1861;50.240;8.596;2023-07-09T00:21:49;22.40;91.80
3690;DHT22;1861;50.240;8.596;2023-07-09T00:24:20;22.40;91.80
3690;DHT22;1861;50.240;8.596;2023-07-09T00:26:48;22.30;91.70
3690;DHT22;1861;50.240;8.596;2023-07-09T00:29:18;22.30;91.80
3690;DHT22;1861;50.240;8.596;2023-07-09T00:31:46;22.30;91.70
3690;DHT22;1861;50.240;8.596;2023-07-09T00:34:16;22.30;91.80
3690;DHT22;1861;50.240;8.596;2023-07-09T00:36:49;22.40;91.80
3690;DHT22;1861;50.240;8.596;2023-07-09T00:39:18;22.30;91.60
3690;DHT22;1861;50.240;8.596;2023-07-09T00:41:47;22.30;91.60
3690;DHT22;1861;50.240;8.596;2023-07-09T00:44:28;22.30;91.60
3690;DHT22;1861;50.240;8.596;2023-07-09T00:47:28;22.30;91.60
3690;DHT22;1861;50.240;8.596;2023-07-09T00:50:10;22.30;91.60
3690;DHT22;1861;50.240;8.596;2023-07-09T00:52:45;22.30;91.50
3690;DHT22;1861;50.240;8.596;2023-07-09T00:55:17;22.30;91.50
3690;DHT22;1861;50.240;8.596;2023-07-09T00:57:48;22.30;91.60
3690;DHT22;1861;50.240;8.596;2023-07-09T01:00:25;22.30;91.60
3690;DHT22;1861;50.240;8.596;2023-07-09T01:02:56;22.20;91.50
3690;DHT22;1861;50.240;8.596;2023-07-09T01:05:27;22.20;91.60
3690;DHT22;1861;50.240;8.596;2023-07-09T01:07:55;22.20;91.70
3690;DHT22;1861;50.240;8.596;2023-07-09T01:10:25;22.20;91.70
3690;DHT22;1861;50.240;8.596;2023-07-09T01:12:53;22.20;91.70
3690;DHT22;1861;50.240;8.596;2023-07-09T01:15:21;22.30;91.70
3690;DHT22;1861;50.240;8.596;2023-07-09T01:17:49;22.20;91.50
3690;DHT22;1861;50.240;8.596;2023-07-09T01:20:21;22.20;91.50
3690;DHT22;1861;50.240;8.596;2023-07-09T01:22:51;22.20;91.50
3690;DHT22;1861;50.240;8.596;2023-07-09T01:25:26;22.20;91.50
3690;DHT22;1861;50.240;8.596;2023-07-09T01:27:57;22.20;91.50
3690;DHT22;1861;50.240;8.596;2023-07-09T01:30:30;22.20;91.70
3690;DHT22;1861;50.240;8.596;2023-07-09T01:33:00;22.20;92.00
3690;DHT22;1861;50.240;8.596;2023-07-09T01:35:30;22.20;91.80
3690;DHT22;1861;50.240;8.596;2023-07-09T01:38:01;22.20;91.80
3690;DHT22;1861;50.240;8.596;2023-07-09T01:40:30;22.20;91.80
3690;DHT22;1861;50.240;8.596;2023-07-09T01:43:03;22.20;91.90
3690;DHT22;1861;50.240;8.596;2023-07-09T01:45:34;22.10;91.90
3690;DHT22;1861;50.240;8.596;2023-07-09T01:48:05;22.10;92.10
3690;DHT22;1861;50.240;8.596;2023-07-09T01:50:33;22.10;92.10
3690;DHT22;1861;50.240;8.596;2023-07-09T01:53:03;22.10;92.10
3690;DHT22;1861;50.240;8.596;2023-07-09T02:00:06;22.10;92.10
3690;DHT22;1861;50.240;8.596;2023-07-09T02:02:41;22.10;92.10
3690;DHT22;1861;50.240;8.596;2023-07-09T02:05:13;22.10;92.10
3690;DHT22;1861;50.240;8.596;2023-07-09T02:07:42;22.10;92.00
3690;DHT22;1861;50.240;8.596;2023-07-09T02:10:14;22.10;92.10
3690;DHT22;1861;50.240;8.596;2023-07-09T02:12:43;22.10;92.20
3690;DHT22;1861;50.240;8.596;2023-07-09T02:15:12;22.10;92.20
3690;DHT22;1861;50.240;8.596;2023-07-09T02:17:42;22.10;92.20
3690;DHT22;1861;50.240;8.596;2023-07-09T02:20:12;22.10;92.20
3690;DHT22;1861;50.240;8.596;2023-07-09T02:22:54;22.10;92.10
3690;DHT22;1861;50.240;8.596;2023-07-09T02:25:53;22.10;92.20
3690;DHT22;1861;50.240;8.596;2023-07-09T02:28:46;22.00;92.20
3690;DHT22;1861;50.240;8.596;2023-07-09T02:31:39;22.10;92.20
3690;DHT22;1861;50.240;8.596;2023-07-09T02:34:35;22.00;92.10
3690;DHT22;1861;50.240;8.596;2023-07-09T02:37:36;22.00;92.10
3690;DHT22;1861;50.240;8.596;2023-07-09T02:40:34;22.00;92.10
3690;DHT22;1861;50.240;8.596;2023-07-09T02:43:25;22.00;92.10
3690;DHT22;1861;50.240;8.596;2023-07-09T02:46:29;22.00;92.00
3690;DHT22;1861;50.240;8.596;2023-07-09T02:49:27;21.90;92.10
3690;DHT22;1861;50.240;8.596;2023-07-09T02:52:31;21.90;92.20
3690;DHT22;1861;50.240;8.596;2023-07-09T02:55:18;21.80;92.20
3690;DHT22;1861;50.240;8.596;2023-07-09T02:57:47;21.80;92.40
3690;DHT22;1861;50.240;8.596;2023-07-09T03:00:18;21.80;92.40
3690;DHT22;1861;50.240;8.596;2023-07-09T03:02:47;21.80;92.40
3690;DHT22;1861;50.240;8.596;2023-07-09T03:05:16;21.80;92.40
3690;DHT22;1861;50.240;8.596;2023-07-09T03:07:44;21.70;92.30
3690;DHT22;1861;50.240;8.596;2023-07-09T03:10:13;21.70;92.40
3690;DHT22;1861;50.240;8.596;2023-07-09T03:12:42;21.70;92.50
3690;DHT22;1861;50.240;8.596;2023-07-09T03:15:11;21.70;92.30
3690;DHT22;1861;50.240;8.596;2023-07-09T03:17:42;21.80;92.30
3690;DHT22;1861;50.240;8.596;2023-07-09T03:20:11;21.70;92.40
3690;DHT22;1861;50.240;8.596;2023-07-09T03:22:40;21.70;92.30
3690;DHT22;1861;50.240;8.596;2023-07-09T03:25:09;21.80;92.30
3690;DHT22;1861;50.240;8.596;2023-07-09T03:27:38;21.80;92.30
3690;DHT22;1861;50.240;8.596;2023-07-09T03:30:08;21.70;92.20
3690;DHT22;1861;50.240;8.596;2023-07-09T03:32:37;21.70;92.30
3690;DHT22;1861;50.240;8.596;2023-07-09T03:35:07;21.70;92.30
3690;DHT22;1861;50.240;8.596;2023-07-09T03:37:36;21.60;92.30
3690;DHT22;1861;50.240;8.596;2023-07-09T03:40:09;21.70;92.60
3690;DHT22;1861;50.240;8.596;2023-07-09T03:42:39;21.70;92.30
3690;DHT22;1861;50.240;8.596;2023-07-09T03:45:08;21.70;92.30
3690;DHT22;1861;50.240;8.596;2023-07-09T03:47:37;21.70;92.30
3690;DHT22;1861;50.240;8.596;2023-07-09T03:50:09;21.60;92.30
3690;DHT22;1861;50.240;8.596;2023-07-09T03:52:38;21.60;92.50
3690;DHT22;1861;50.240;8.596;2023-07-09T03:55:08;21.60;92.60
3690;DHT22;1861;50.240;8.596;2023-07-09T03:57:37;21.60;92.40
3690;DHT22;1861;50.240;8.596;2023-07-09T04:00:07;21.60;92.40
3690;DHT22;1861;50.240;8.596;2023-07-09T04:02:43;21.60;92.50
3690;DHT22;1861;50.240;8.596;2023-07-09T04:05:14;21.60;92.40
3690;DHT22;1861;50.240;8.596;2023-07-09T04:07:43;21.60;92.40
3690;DHT22;1861;50.240;8.596;2023-07-09T04:10:13;21.60;92.50
3690;DHT22;1861;50.240;8.596;2023-07-09T04:12:42;21.70;92.50
3690;DHT22;1861;50.240;8.596;2023-07-09T04:15:12;21.70;92.50
3690;DHT22;1861;50.240;8.596;2023-07-09T04:17:41;21.70;92.60
3690;DHT22;1861;50.240;8.596;2023-07-09T04:20:10;21.60;92.70
3690;DHT22;1861;50.240;8.596;2023-07-09T04:22:41;21.60;92.80
3690;DHT22;1861;50.240;8.596;2023-07-09T04:25:12;21.60;92.90
3690;DHT22;1861;50.240;8.596;2023-07-09T04:27:40;21.60;92.90
3690;DHT22;1861;50.240;8.596;2023-07-09T04:30:11;21.60;92.90
3690;DHT22;1861;50.240;8.596;2023-07-09T04:32:40;21.60;92.80
3690;DHT22;1861;50.240;8.596;2023-07-09T04:35:11;21.70;92.80
3690;DHT22;1861;50.240;8.596;2023-07-09T04:37:42;21.70;92.70
3690;DHT22;1861;50.240;8.596;2023-07-09T04:40:12;21.70;92.80
3690;DHT22;1861;50.240;8.596;2023-07-09T04:42:41;21.70;92.80
3690;DHT22;1861;50.240;8.596;2023-07-09T04:45:11;21.70;92.90
3690;DHT22;1861;50.240;8.596;2023-07-09T04:47:40;21.70;93.10
3690;DHT22;1861;50.240;8.596;2023-07-09T04:50:10;21.70;93.10
3690;DHT22;1861;50.240;8.596;2023-07-09T04:52:40;21.70;93.10
3690;DHT22;1861;50.240;8.596;2023-07-09T04:55:09;21.70;93.10
3690;DHT22;1861;50.240;8.596;2023-07-09T04:57:38;21.70;93.10
3690;DHT22;1861;50.240;8.596;2023-07-09T05:00:08;21.70;93.30
3690;DHT22;1861;50.240;8.596;2023-07-09T05:02:38;21.80;93.50
3690;DHT22;1861;50.240;8.596;2023-07-09T05:05:07;21.80;93.60
3690;DHT22;1861;50.240;8.596;2023-07-09T05:07:36;21.80;93.60
3690;DHT22;1861;50.240;8.596;2023-07-09T05:10:07;21.70;93.60
3690;DHT22;1861;50.240;8.596;2023-07-09T05:12:46;21.70;93.60
3690;DHT22;1861;50.240;8.596;2023-07-09T05:15:15;21.70;93.90
3690;DHT22;1861;50.240;8.596;2023-07-09T05:17:44;21.80;94.20
3690;DHT22;1861;50.240;8.596;2023-07-09T05:20:14;21.80;94.30
3690;DHT22;1861;50.240;8.596;2023-07-09T05:22:43;21.80;94.40
3690;DHT22;1861;50.240;8.596;2023-07-09T05:25:13;21.80;94.40
3690;DHT22;1861;50.240;8.596;2023-07-09T05:27:42;21.80;94.40
3690;DHT22;1861;50.240;8.596;2023-07-09T05:30:11;21.80;94.60
3690;DHT22;1861;50.240;8.596;2023-07-09T05:32:40;21.80;94.80
3690;DHT22;1861;50.240;8.596;2023-07-09T05:35:09;21.80;94.80
3690;DHT22;1861;50.240;8.596;2023-07-09T05:37:38;21.90;94.90
3690;DHT22;1861;50.240;8.596;2023-07-09T05:40:08;21.90;94.80
3690;DHT22;1861;50.240;8.596;2023-07-09T05:42:39;21.90;94.60
3690;DHT22;1861;50.240;8.596;2023-07-09T05:45:08;21.90;94.60
3690;DHT22;1861;50.240;8.596;2023-07-09T05:47:37;22.00;94.70
3690;DHT22;1861;50.240;8.596;2023-07-09T05:50:07;22.00;94.60
3690;DHT22;1861;50.240;8.596;2023-07-09T05:52:36;22.00;94.70
3690;DHT22;1861;50.240;8.596;2023-07-09T05:55:07;22.00;94.70
3690;DHT22;1861;50.240;8.596;2023-07-09T05:57:45;22.00;94.70
3690;DHT22;1861;50.240;8.596;2023-07-09T06:00:15;22.00;94.70
3690;DHT22;1861;50.240;8.596;2023-07-09T06:11:56;22.00;94.40
3690;DHT22;1861;50.240;8.596;2023-07-09T06:14:26;22.00;94.30
3690;DHT22;1861;50.240;8.596;2023-07-09T06:16:55;22.00;94.30
3690;DHT22;1861;50.240;8.596;2023-07-09T06:19:23;22.00;94.30
3690;DHT22;1861;50.240;8.596;2023-07-09T06:21:51;22.00;94.30
3690;DHT22;1861;50.240;8.596;2023-07-09T06:24:19;22.00;94.30
3690;DHT22;1861;50.240;8.596;2023-07-09T06:26:48;22.00;94.30
3690;DHT22;1861;50.240;8.596;2023-07-09T06:29:16;22.10;94.30
3690;DHT22;1861;50.240;8.596;2023-07-09T06:31:45;22.10;94.30
3690;DHT22;1861;50.240;8.596;2023-07-09T06:34:13;22.10;94.30
3690;DHT22;1861;50.240;8.596;2023-07-09T06:36:41;22.10;94.30
3690;DHT22;1861;50.240;8.596;2023-07-09T06:39:10;22.10;94.30
3690;DHT22;1861;50.240;8.596;2023-07-09T06:41:39;22.10;94.40
3690;DHT22;1861;50.240;8.596;2023-07-09T06:44:26;22.10;94.40
3690;DHT22;1861;50.240;8.596;2023-07-09T06:46:55;22.10;94.40
3690;DHT22;1861;50.240;8.596;2023-07-09T06:49:23;22.10;94.40
3690;DHT22;1861;50.240;8.596;2023-07-09T06:51:52;22.10;94.40
3690;DHT22;1861;50.240;8.596;2023-07-09T06:54:20;22.10;94.40
3690;DHT22;1861;50.240;8.596;2023-07-09T06:56:48;22.20;94.80
3690;DHT22;1861;50.240;8.596;2023-07-09T06:59:16;22.10;94.50
3690;DHT22;1861;50.240;8.596;2023-07-09T07:01:44;22.10;94.50
3690;DHT22;1861;50.240;8.596;2023-07-09T07:04:14;22.10;94.50
3690;DHT22;1861;50.240;8.596;2023-07-09T07:06:42;22.10;94.50
3690;DHT22;1861;50.240;8.596;2023-07-09T07:09:10;22.20;94.60
3690;DHT22;1861;50.240;8.596;2023-07-09T07:11:39;22.20;94.60
3690;DHT22;1861;50.240;8.596;2023-07-09T07:14:07;22.20;94.60
3690;DHT22;1861;50.240;8.596;2023-07-09T07:16:35;22.20;94.70
3690;DHT22;1861;50.240;8.596;2023-07-09T07:19:03;22.20;94.70
3690;DHT22;1861;50.240;8.596;2023-07-09T07:21:34;22.20;94.70
3690;DHT22;1861;50.240;8.596;2023-07-09T07:24:02;22.20;94.80
3690;DHT22;1861;50.240;8.596;2023-07-09T07:26:30;22.20;94.70
3690;DHT22;1861;50.240;8.596;2023-07-09T07:28:58;22.20;94.80
3690;DHT22;1861;50.240;8.596;2023-07-09T07:31:26;22.20;94.80
3690;DHT22;1861;50.240;8.596;2023-07-09T07:33:55;22.20;94.80
3690;DHT22;1861;50.240;8.596;2023-07-09T07:36:23;22.20;94.80
3690;DHT22;1861;50.240;8.596;2023-07-09T07:38:58;22.20;94.90
3690;DHT22;1861;50.240;8.596;2023-07-09T07:41:27;22.20;94.90
3690;DHT22;1861;50.240;8.596;2023-07-09T07:43:55;22.20;95.00
3690;DHT22;1861;50.240;8.596;2023-07-09T07:46:24;22.20;95.00
3690;DHT22;1861;50.240;8.596;2023-07-09T07:48:52;22.30;95.10
3690;DHT22;1861;50.240;8.596;2023-07-09T07:51:20;22.30;95.00
3690;DHT22;1861;50.240;8.596;2023-07-09T07:53:49;22.30;95.10
3690;DHT22;1861;50.240;8.596;2023-07-09T07:56:18;22.30;95.20
3690;DHT22;1861;50.240;8.596;2023-07-09T07:58:46;22.30;95.10
3690;DHT22;1861;50.240;8.596;2023-07-09T08:01:14;22.30;95.10
3690;DHT22;1861;50.240;8.596;2023-07-09T08:03:42;22.30;95.10
3690;DHT22;1861;50.240;8.596;2023-07-09T08:06:11;22.30;95.10
3690;DHT22;1861;50.240;8.596;2023-07-09T08:08:39;22.30;95.00
3690;DHT22;1861;50.240;8.596;2023-07-09T08:11:07;22.30;95.00
3690;DHT22;1861;50.240;8.596;2023-07-09T08:13:37;22.30;95.00
3690;DHT22;1861;50.240;8.596;2023-07-09T08:16:06;22.30;95.10
3690;DHT22;1861;50.240;8.596;2023-07-09T08:18:35;22.30;95.10
3690;DHT22;1861;50.240;8.596;2023-07-09T08:21:03;22.30;95.10
3690;DHT22;1861;50.240;8.596;2023-07-09T08:23:32;22.30;95.00
3690;DHT22;1861;50.240;8.596;2023-07-09T08:26:01;22.30;95.30
3690;DHT22;1861;50.240;8.596;2023-07-09T08:28:31;22.30;95.10
3690;DHT22;1861;50.240;8.596;2023-07-09T08:31:01;22.30;95.10
3690;DHT22;1861;50.240;8.596;2023-07-09T08:33:30;22.30;95.10
3690;DHT22;1861;50.240;8.596;2023-07-09T08:35:58;22.30;95.10
3690;DHT22;1861;50.240;8.596;2023-07-09T08:38:26;22.40;95.00
3690;DHT22;1861;50.240;8.596;2023-07-09T08:40:58;22.40;95.00
3690;DHT22;1861;50.240;8.596;2023-07-09T08:43:34;22.40;94.90
3690;DHT22;1861;50.240;8.596;2023-07-09T08:46:16;22.40;94.90
3690;DHT22;1861;50.240;8.596;2023-07-09T08:48:48;22.40;95.00
3690;DHT22;1861;50.240;8.596;2023-07-09T08:51:27;22.40;94.70
3690;DHT22;1861;50.240;8.596;2023-07-09T08:53:58;22.40;94.90
3690;DHT22;1861;50.240;8.596;2023-07-09T08:56:27;22.50;95.10
3690;DHT22;1861;50.240;8.596;2023-07-09T08:58:59;22.50;95.00
3690;DHT22;1861;50.240;8.596;2023-07-09T09:01:34;22.50;95.00
3690;DHT22;1861;50.240;8.596;2023-07-09T09:04:07;22.50;95.10
3690;DHT22;1861;50.240;8.596;2023-07-09T09:06:42;22.50;95.10
3690;DHT22;1861;50.240;8.596;2023-07-09T09:09:21;22.50;95.00
3690;DHT22;1861;50.240;8.596;2023-07-09T09:11:59;22.50;95.00
3690;DHT22;1861;50.240;8.596;2023-07-09T09:14:34;22.50;95.00
3690;DHT22;1861;50.240;8.596;2023-07-09T09:17:10;22.50;95.20
3690;DHT22;1861;50.240;8.596;2023-07-09T09:19:47;22.50;95.00
3690;DHT22;1861;50.240;8.596;2023-07-09T09:22:20;22.50;94.90
3690;DHT22;1861;50.240;8.596;2023-07-09T09:24:57;22.50;94.80
3690;DHT22;1861;50.240;8.596;2023-07-09T09:27:26;22.50;94.80
3690;DHT22;1861;50.240;8.596;2023-07-09T09:29:54;22.50;94.70
3690;DHT22;1861;50.240;8.596;2023-07-09T09:32:26;22.50;94.70
3690;DHT22;1861;50.240;8.596;2023-07-09T09:34:55;22.60;94.50
3690;DHT22;1861;50.240;8.596;2023-07-09T09:37:27;22.50;94.40
3690;DHT22;1861;50.240;8.596;2023-07-09T09:39:56;22.50;94.30
3690;DHT22;1861;50.240;8.596;2023-07-09T09:42:41;22.50;94.30
3690;DHT22;1861;50.240;8.596;2023-07-09T09:45:12;22.60;94.30
3690;DHT22;1861;50.240;8.596;2023-07-09T09:47:43;22.60;94.40
3690;DHT22;1861;50.240;8.596;2023-07-09T09:50:13;22.60;94.30
3690;DHT22;1861;50.240;8.596;2023-07-09T09:52:43;22.60;94.30
3690;DHT22;1861;50.240;8.596;2023-07-09T09:55:17;22.60;94.10
3690;DHT22;1861;50.240;8.596;2023-07-09T09:57:50;22.60;93.90
3690;DHT22;1861;50.240;8.596;2023-07-09T10:00:19;22.60;94.00
3690;DHT22;1861;50.240;8.596;2023-07-09T10:02:56;22.70;94.00
3690;DHT22;1861;50.240;8.596;2023-07-09T10:05:29;22.70;93.80
3690;DHT22;1861;50.240;8.596;2023-07-09T10:08:02;22.70;93.80
3690;DHT22;1861;50.240;8.596;2023-07-09T10:10:33;22.70;93.70
3690;DHT22;1861;50.240;8.596;2023-07-09T10:13:07;22.70;93.70
3690;DHT22;1861;50.240;8.596;2023-07-09T10:15:43;22.70;93.60
3690;DHT22;1861;50.240;8.596;2023-07-09T10:18:30;22.70;93.70
3690;DHT22;1861;50.240;8.596;2023-07-09T10:21:05;22.70;93.40
3690;DHT22;1861;50.240;8.596;2023-07-09T10:23:42;22.70;93.40
3690;DHT22;1861;50.240;8.596;2023-07-09T10:26:14;22.80;93.30
3690;DHT22;1861;50.240;8.596;2023-07-09T10:28:57;22.80;93.30
3690;DHT22;1861;50.240;8.596;2023-07-09T10:31:35;22.80;93.20
3690;DHT22;1861;50.240;8.596;2023-07-09T10:34:14;22.80;93.20
3690;DHT22;1861;50.240;8.596;2023-07-09T10:36:58;22.80;93.20
3690;DHT22;1861;50.240;8.596;2023-07-09T10:39:33;22.90;93.20
3690;DHT22;1861;50.240;8.596;2023-07-09T10:42:02;22.90;93.00
3690;DHT22;1861;50.240;8.596;2023-07-09T10:44:34;22.90;93.00
3690;DHT22;1861;50.240;8.596;2023-07-09T10:47:06;22.90;93.00
3690;DHT22;1861;50.240;8.596;2023-07-09T10:49:41;22.90;93.30
3690;DHT22;1861;50.240;8.596;2023-07-09T10:52:23;23.00;93.10
3690;DHT22;1861;50.240;8.596;2023-07-09T10:54:59;23.00;93.30
3690;DHT22;1861;50.240;8.596;2023-07-09T10:57:30;23.00;93.10
3690;DHT22;1861;50.240;8.596;2023-07-09T11:00:03;23.00;93.00
3690;DHT22;1861;50.240;8.596;2023-07-09T11:02:36;23.00;92.90
3690;DHT22;1861;50.240;8.596;2023-07-09T11:05:08;23.10;92.80
3690;DHT22;1861;50.240;8.596;2023-07-09T11:07:40;23.00;92.70
3690;DHT22;1861;50.240;8.596;2023-07-09T11:10:17;23.10;92.70
3690;DHT22;1861;50.240;8.596;2023-07-09T11:12:55;23.10;92.80
3690;DHT22;1861;50.240;8.596;2023-07-09T11:15:30;23.10;92.70
3690;DHT22;1861;50.240;8.596;2023-07-09T11:17:59;23.10;92.40
3690;DHT22;1861;50.240;8.596;2023-07-09T11:20:34;23.10;92.50
3690;DHT22;1861;50.240;8.596;2023-07-09T11:23:05;23.10;92.50
3690;DHT22;1861;50.240;8.596;2023-07-09T11:25:42;23.10;92.40
3690;DHT22;1861;50.240;8.596;2023-07-09T11:28:11;23.20;92.50
3690;DHT22;1861;50.240;8.596;2023-07-09T11:30:47;23.20;92.40
3690;DHT22;1861;50.240;8.596;2023-07-09T11:33:18;23.20;92.30
3690;DHT22;1861;50.240;8.596;2023-07-09T11:35:54;23.20;92.30
3690;DHT22;1861;50.240;8.596;2023-07-09T11:38:39;23.30;92.30
3690;DHT22;1861;50.240;8.596;2023-07-09T11:41:26;23.30;92.30
3690;DHT22;1861;50.240;8.596;2023-07-09T11:44:04;23.30;92.10
3690;DHT22;1861;50.240;8.596;2023-07-09T11:46:35;23.30;92.10
3690;DHT22;1861;50.240;8.596;2023-07-09T11:49:07;23.40;92.10
3690;DHT22;1861;50.240;8.596;2023-07-09T11:51:42;23.40;92.20
3690;DHT22;1861;50.240;8.596;2023-07-09T11:54:12;23.40;92.10
3690;DHT22;1861;50.240;8.596;2023-07-09T11:56:41;23.50;92.00
3690;DHT22;1861;50.240;8.596;2023-07-09T11:59:11;23.50;92.00
3690;DHT22;1861;50.240;8.596;2023-07-09T12:01:45;23.60;92.30
3690;DHT22;1861;50.240;8.596;2023-07-09T12:04:14;23.60;92.20
3690;DHT22;1861;50.240;8.596;2023-07-09T12:06:45;23.60;92.20
3690;DHT22;1861;50.240;8.596;2023-07-09T12:09:16;23.60;91.90
3690;DHT22;1861;50.240;8.596;2023-07-09T12:11:46;23.60;92.00
3690;DHT22;1861;50.240;8.596;2023-07-09T12:14:17;23.60;92.00
3690;DHT22;1861;50.240;8.596;2023-07-09T12:16:46;23.60;91.80
3690;DHT22;1861;50.240;8.596;2023-07-09T12:19:16;23.70;91.90
3690;DHT22;1861;50.240;8.596;2023-07-09T12:21:48;23.70;91.80
3690;DHT22;1861;50.240;8.596;2023-07-09T12:24:19;23.60;91.80
3690;DHT22;1861;50.240;8.596;2023-07-09T12:26:49;23.60;91.70
3690;DHT22;1861;50.240;8.596;2023-07-09T12:29:17;23.60;91.70
3690;DHT22;1861;50.240;8.596;2023-07-09T12:31:45;23.60;91.60
3690;DHT22;1861;50.240;8.596;2023-07-09T12:34:14;23.60;91.60
3690;DHT22;1861;50.240;8.596;2023-07-09T12:36:46;23.60;91.60
3690;DHT22;1861;50.240;8.596;2023-07-09T12:39:16;23.60;91.60
3690;DHT22;1861;50.240;8.596;2023-07-09T12:41:45;23.60;91.60
3690;DHT22;1861;50.240;8.596;2023-07-09T12:44:16;23.60;91.60
3690;DHT22;1861;50.240;8.596;2023-07-09T12:46:46;23.60;91.50
3690;DHT22;1861;50.240;8.596;2023-07-09T12:49:23;23.60;91.40
3690;DHT22;1861;50.240;8.596;2023-07-09T12:51:55;23.60;91.40
3690;DHT22;1861;50.240;8.596;2023-07-09T12:54:24;23.70;91.50
3690;DHT22;1861;50.240;8.596;2023-07-09T12:56:53;23.60;91.40
3690;DHT22;1861;50.240;8.596;2023-07-09T12:59:24;23.70;91.50
3690;DHT22;1861;50.240;8.596;2023-07-09T13:01:56;23.60;91.50
3690;DHT22;1861;50.240;8.596;2023-07-09T13:04:29;23.80;91.60
3690;DHT22;1861;50.240;8.596;2023-07-09T13:06:59;23.70;91.50
3690;DHT22;1861;50.240;8.596;2023-07-09T13:09:28;23.70;91.40
3690;DHT22;1861;50.240;8.596;2023-07-09T13:11:56;23.70;91.40
3690;DHT22;1861;50.240;8.596;2023-07-09T13:14:27;23.70;91.40
3690;DHT22;1861;50.240;8.596;2023-07-09T13:17:03;23.60;91.30
3690;DHT22;1861;50.240;8.596;2023-07-09T13:19:31;23.70;91.40
3690;DHT22;1861;50.240;8.596;2023-07-09T13:22:01;23.70;91.60
3690;DHT22;1861;50.240;8.596;2023-07-09T13:24:30;23.70;91.40
3690;DHT22;1861;50.240;8.596;2023-07-09T13:27:00;23.70;91.20
3690;DHT22;1861;50.240;8.596;2023-07-09T13:29:28;23.70;91.40
3690;DHT22;1861;50.240;8.596;2023-07-09T13:31:56;23.80;91.30
3690;DHT22;1861;50.240;8.596;2023-07-09T13:34:26;23.70;91.30
3690;DHT22;1861;50.240;8.596;2023-07-09T13:36:58;23.70;91.30
3690;DHT22;1861;50.240;8.596;2023-07-09T13:39:29;23.80;91.40
3690;DHT22;1861;50.240;8.596;2023-07-09T13:41:58;23.90;91.50
3690;DHT22;1861;50.240;8.596;2023-07-09T13:44:29;24.80;91.00
3690;DHT22;1861;50.240;8.596;2023-07-09T13:46:58;25.70;90.20
3690;DHT22;1861;50.240;8.596;2023-07-09T13:49:26;26.20;89.00
3690;DHT22;1861;50.240;8.596;2023-07-09T13:51:58;26.50;87.30
3690;DHT22;1861;50.240;8.596;2023-07-09T13:54:31;26.60;87.20
3690;DHT22;1861;50.240;8.596;2023-07-09T13:57:03;26.60;86.70
3690;DHT22;1861;50.240;8.596;2023-07-09T13:59:33;26.70;85.90
3690;DHT22;1861;50.240;8.596;2023-07-09T14:02:01;26.70;85.50
3690;DHT22;1861;50.240;8.596;2023-07-09T14:04:33;26.50;85.40
3690;DHT22;1861;50.240;8.596;2023-07-09T14:07:01;26.20;86.20
3690;DHT22;1861;50.240;8.596;2023-07-09T14:09:30;26.20;86.40
3690;DHT22;1861;50.240;8.596;2023-07-09T14:11:58;26.10;86.00
3690;DHT22;1861;50.240;8.596;2023-07-09T14:14:30;25.90;86.20
3690;DHT22;1861;50.240;8.596;2023-07-09T14:17:00;25.80;86.20
3690;DHT22;1861;50.240;8.596;2023-07-09T14:19:28;25.60;86.90
3690;DHT22;1861;50.240;8.596;2023-07-09T14:21:56;25.30;87.60
3690;DHT22;1861;50.240;8.596;2023-07-09T14:24:26;25.10;88.20
3690;DHT22;1861;50.240;8.596;2023-07-09T14:26:57;24.90;88.70
3690;DHT22;1861;50.240;8.596;2023-07-09T14:29:25;24.60;88.80
3690;DHT22;1861;50.240;8.596;2023-07-09T14:31:54;24.60;89.30
3690;DHT22;1861;50.240;8.596;2023-07-09T14:34:23;24.50;89.60
3690;DHT22;1861;50.240;8.596;2023-07-09T14:36:53;24.40;89.80
3690;DHT22;1861;50.240;8.596;2023-07-09T14:39:22;24.30;89.80
3690;DHT22;1861;50.240;8.596;2023-07-09T14:41:51;24.30;90.00
3690;DHT22;1861;50.240;8.596;2023-07-09T14:44:23;24.30;90.00
3690;DHT22;1861;50.240;8.596;2023-07-09T14:46:53;24.20;90.10
3690;DHT22;1861;50.240;8.596;2023-07-09T14:49:22;24.10;90.00
3690;DHT22;1861;50.240;8.596;2023-07-09T14:51:51;24.20;90.10
3690;DHT22;1861;50.240;8.596;2023-07-09T14:54:21;24.10;90.10
3690;DHT22;1861;50.240;8.596;2023-07-09T14:56:52;24.10;90.20
3690;DHT22;1861;50.240;8.596;2023-07-09T14:59:22;24.00;90.20
3690;DHT22;1861;50.240;8.596;2023-07-09T15:01:52;24.00;90.20
3690;DHT22;1861;50.240;8.596;2023-07-09T15:04:29;24.00;90.30
3690;DHT22;1861;50.240;8.596;2023-07-09T15:06:58;23.90;90.30
3690;DHT22;1861;50.240;8.596;2023-07-09T15:09:28;23.90;90.30
3690;DHT22;1861;50.240;8.596;2023-07-09T15:11:58;23.90;90.40
3690;DHT22;1861;50.240;8.596;2023-07-09T15:14:28;23.80;90.30
3690;DHT22;1861;50.240;8.596;2023-07-09T15:16:56;23.80;90.40
3690;DHT22;1861;50.240;8.596;2023-07-09T15:19:27;23.80;90.40
3690;DHT22;1861;50.240;8.596;2023-07-09T15:21:56;23.80;90.40
3690;DHT22;1861;50.240;8.596;2023-07-09T15:24:27;23.80;90.40
3690;DHT22;1861;50.240;8.596;2023-07-09T15:26:56;23.80;90.40
3690;DHT22;1861;50.240;8.596;2023-07-09T15:29:24;23.80;90.50
3690;DHT22;1861;50.240;8.596;2023-07-09T15:31:54;23.80;90.50
3690;DHT22;1861;50.240;8.596;2023-07-09T15:34:22;23.80;90.60
3690;DHT22;1861;50.240;8.596;2023-07-09T15:36:52;23.80;90.50
3690;DHT22;1861;50.240;8.596;2023-07-09T15:39:21;23.80;90.60
3690;DHT22;1861;50.240;8.596;2023-07-09T15:41:49;23.80;90.60
3690;DHT22;1861;50.240;8.596;2023-07-09T15:44:18;23.70;90.60
3690;DHT22;1861;50.240;8.596;2023-07-09T15:46:51;23.70;90.60
3690;DHT22;1861;50.240;8.596;2023-07-09T15:49:22;23.70;90.60
3690;DHT22;1861;50.240;8.596;2023-07-09T15:51:50;23.70;90.70
3690;DHT22;1861;50.240;8.596;2023-07-09T15:54:19;23.60;90.70
3690;DHT22;1861;50.240;8.596;2023-07-09T15:56:49;23.70;90.70
3690;DHT22;1861;50.240;8.596;2023-07-09T15:59:36;23.60;90.70
3690;DHT22;1861;50.240;8.596;2023-07-09T16:02:13;23.60;90.70
3690;DHT22;1861;50.240;8.596;2023-07-09T16:04:43;23.60;90.70
3690;DHT22;1861;50.240;8.596;2023-07-09T16:07:12;23.60;90.70
3690;DHT22;1861;50.240;8.596;2023-07-09T16:09:41;23.60;90.80
3690;DHT22;1861;50.240;8.596;2023-07-09T16:12:11;23.50;90.80
3690;DHT22;1861;50.240;8.596;2023-07-09T16:14:40;23.50;90.80
3690;DHT22;1861;50.240;8.596;2023-07-09T16:17:10;23.50;90.80
3690;DHT22;1861;50.240;8.596;2023-07-09T16:19:38;23.50;90.90
3690;DHT22;1861;50.240;8.596;2023-07-09T16:22:09;23.40;90.80
3690;DHT22;1861;50.240;8.596;2023-07-09T16:24:38;23.50;90.90
3690;DHT22;1861;50.240;8.596;2023-07-09T16:27:09;23.50;90.90
3690;DHT22;1861;50.240;8.596;2023-07-09T16:29:41;23.50;90.90
3690;DHT22;1861;50.240;8.596;2023-07-09T16:32:09;23.50;91.00
3690;DHT22;1861;50.240;8.596;2023-07-09T16:34:37;23.40;90.90
3690;DHT22;1861;50.240;8.596;2023-07-09T16:37:16;23.40;90.90
3690;DHT22;1861;50.240;8.596;2023-07-09T16:39:45;23.40;90.90
3690;DHT22;1861;50.240;8.596;2023-07-09T16:42:14;23.40;90.90
3690;DHT22;1861;50.240;8.596;2023-07-09T16:44:43;23.40;90.90